sensor_id;sensor_type;location;lat;lon;timestamp;P1;durP1;ratioP1;P2;durP2;ratioP2
11006;SDS011;8186;57.652;11.968;2023-11-19T00:01:01;1.63;;;1.53;;
11006;SDS011;8186;57.652;11.968;2023-11-19T00:03:30;1.90;;;1.70;;
11006;SDS011;8186;57.652;11.968;2023-11-19T00:05:58;2.30;;;1.83;;
11006;SDS011;8186;57.652;11.968;2023-11-19T00:08:26;2.90;;;1.67;;
11006;SDS011;8186;57.652;11.968;2023-11-19T00:10:53;2.27;;;1.73;;
11006;SDS011;8186;57.652;11.968;2023-11-19T00:13:20;2.73;;;2.00;;
11006;SDS011;8186;57.652;11.968;2023-11-19T00:15:48;3.53;;;1.90;;
11006;SDS011;8186;57.652;11.968;2023-11-19T00:18:15;3.63;;;2.10;;
11006;SDS011;8186;57.652;11.968;2023-11-19T00:20:42;1.90;;;1.50;;
11006;SDS011;8186;57.652;11.968;2023-11-19T00:23:10;2.10;;;1.83;;
11006;SDS011;8186;57.652;11.968;2023-11-19T00:25:38;1.63;;;1.53;;
11006;SDS011;8186;57.652;11.968;2023-11-19T00:28:05;1.73;;;1.50;;
11006;SDS011;8186;57.652;11.968;2023-11-19T00:30:32;2.37;;;1.70;;
11006;SDS011;8186;57.652;11.968;2023-11-19T00:32:58;2.10;;;1.70;;
11006;SDS011;8186;57.652;11.968;2023-11-19T00:35:25;2.80;;;1.80;;
11006;SDS011;8186;57.652;11.968;2023-11-19T00:37:52;1.63;;;1.50;;
11006;SDS011;8186;57.652;11.968;2023-11-19T00:40:19;2.30;;;1.80;;
11006;SDS011;8186;57.652;11.968;2023-11-19T00:42:49;2.20;;;1.80;;
11006;SDS011;8186;57.652;11.968;2023-11-19T00:45:16;2.17;;;1.60;;
11006;SDS011;8186;57.652;11.968;2023-11-19T00:47:43;3.23;;;1.53;;
11006;SDS011;8186;57.652;11.968;2023-11-19T00:50:10;1.87;;;1.73;;
11006;SDS011;8186;57.652;11.968;2023-11-19T00:52:38;1.60;;;1.30;;
11006;SDS011;8186;57.652;11.968;2023-11-19T00:55:06;1.67;;;1.57;;
11006;SDS011;8186;57.652;11.968;2023-11-19T00:57:33;2.57;;;2.10;;
11006;SDS011;8186;57.652;11.968;2023-11-19T01:00:02;1.90;;;1.70;;
11006;SDS011;8186;57.652;11.968;2023-11-19T01:02:34;1.63;;;1.37;;
11006;SDS011;8186;57.652;11.968;2023-11-19T01:05:01;2.40;;;1.70;;
11006;SDS011;8186;57.652;11.968;2023-11-19T01:07:28;2.23;;;1.80;;
11006;SDS011;8186;57.652;11.968;2023-11-19T01:09:55;1.83;;;1.53;;
11006;SDS011;8186;57.652;11.968;2023-11-19T01:12:22;1.90;;;1.50;;
11006;SDS011;8186;57.652;11.968;2023-11-19T01:14:49;2.63;;;1.90;;
11006;SDS011;8186;57.652;11.968;2023-11-19T01:17:17;3.53;;;1.70;;
11006;SDS011;8186;57.652;11.968;2023-11-19T01:19:44;1.90;;;1.70;;
11006;SDS011;8186;57.652;11.968;2023-11-19T01:22:10;3.00;;;1.90;;
11006;SDS011;8186;57.652;11.968;2023-11-19T01:24:37;1.83;;;1.57;;
11006;SDS011;8186;57.652;11.968;2023-11-19T01:27:04;2.23;;;1.60;;
11006;SDS011;8186;57.652;11.968;2023-11-19T01:29:31;2.63;;;1.80;;
11006;SDS011;8186;57.652;11.968;2023-11-19T01:31:58;2.43;;;1.73;;
11006;SDS011;8186;57.652;11.968;2023-11-19T01:34:26;1.57;;;1.47;;
11006;SDS011;8186;57.652;11.968;2023-11-19T01:36:53;2.03;;;1.53;;
11006;SDS011;8186;57.652;11.968;2023-11-19T01:39:20;2.50;;;1.80;;
11006;SDS011;8186;57.652;11.968;2023-11-19T01:41:47;1.40;;;1.30;;
11006;SDS011;8186;57.652;11.968;2023-11-19T01:44:14;1.97;;;1.63;;
11006;SDS011;8186;57.652;11.968;2023-11-19T01:46:41;1.83;;;1.60;;
11006;SDS011;8186;57.652;11.968;2023-11-19T01:49:10;2.20;;;1.97;;
11006;SDS011;8186;57.652;11.968;2023-11-19T01:51:39;2.00;;;1.80;;
11006;SDS011;8186;57.652;11.968;2023-11-19T01:54:06;2.13;;;1.70;;
11006;SDS011;8186;57.652;11.968;2023-11-19T01:56:34;1.50;;;1.40;;
11006;SDS011;8186;57.652;11.968;2023-11-19T01:59:01;1.97;;;1.60;;
11006;SDS011;8186;57.652;11.968;2023-11-19T02:01:28;2.67;;;1.77;;
11006;SDS011;8186;57.652;11.968;2023-11-19T02:03:57;1.90;;;1.57;;
11006;SDS011;8186;57.652;11.968;2023-11-19T02:06:25;2.00;;;1.60;;
11006;SDS011;8186;57.652;11.968;2023-11-19T02:08:53;2.70;;;1.67;;
11006;SDS011;8186;57.652;11.968;2023-11-19T02:11:20;1.77;;;1.50;;
11006;SDS011;8186;57.652;11.968;2023-11-19T02:13:47;1.87;;;1.47;;
11006;SDS011;8186;57.652;11.968;2023-11-19T02:16:14;1.53;;;1.43;;
11006;SDS011;8186;57.652;11.968;2023-11-19T02:18:41;2.37;;;1.83;;
11006;SDS011;8186;57.652;11.968;2023-11-19T02:21:08;1.60;;;1.33;;
11006;SDS011;8186;57.652;11.968;2023-11-19T02:23:35;1.80;;;1.43;;
11006;SDS011;8186;57.652;11.968;2023-11-19T02:26:05;1.97;;;1.87;;
11006;SDS011;8186;57.652;11.968;2023-11-19T02:28:42;2.50;;;1.37;;
11006;SDS011;8186;57.652;11.968;2023-11-19T02:31:09;1.90;;;1.40;;
11006;SDS011;8186;57.652;11.968;2023-11-19T02:33:36;1.73;;;1.30;;
11006;SDS011;8186;57.652;11.968;2023-11-19T02:36:03;1.80;;;1.60;;
11006;SDS011;8186;57.652;11.968;2023-11-19T02:38:32;3.03;;;1.60;;
11006;SDS011;8186;57.652;11.968;2023-11-19T02:40:59;1.63;;;1.40;;
11006;SDS011;8186;57.652;11.968;2023-11-19T02:43:30;1.70;;;1.60;;
11006;SDS011;8186;57.652;11.968;2023-11-19T02:46:00;1.40;;;1.30;;
11006;SDS011;8186;57.652;11.968;2023-11-19T02:48:27;2.90;;;1.70;;
11006;SDS011;8186;57.652;11.968;2023-11-19T02:50:55;1.90;;;1.50;;
11006;SDS011;8186;57.652;11.968;2023-11-19T02:53:23;2.60;;;1.33;;
11006;SDS011;8186;57.652;11.968;2023-11-19T02:55:52;1.57;;;1.37;;
11006;SDS011;8186;57.652;11.968;2023-11-19T02:58:26;3.80;;;1.40;;
11006;SDS011;8186;57.652;11.968;2023-11-19T03:00:54;2.20;;;1.50;;
11006;SDS011;8186;57.652;11.968;2023-11-19T03:03:24;1.83;;;1.60;;
11006;SDS011;8186;57.652;11.968;2023-11-19T03:05:54;1.80;;;1.30;;
11006;SDS011;8186;57.652;11.968;2023-11-19T03:08:21;2.40;;;1.50;;
11006;SDS011;8186;57.652;11.968;2023-11-19T03:10:48;2.23;;;1.80;;
11006;SDS011;8186;57.652;11.968;2023-11-19T03:13:15;1.47;;;1.37;;
11006;SDS011;8186;57.652;11.968;2023-11-19T03:15:43;1.80;;;1.50;;
11006;SDS011;8186;57.652;11.968;2023-11-19T03:18:10;1.80;;;1.47;;
11006;SDS011;8186;57.652;11.968;2023-11-19T03:20:38;3.77;;;1.40;;
11006;SDS011;8186;57.652;11.968;2023-11-19T03:23:05;1.73;;;1.40;;
11006;SDS011;8186;57.652;11.968;2023-11-19T03:25:32;2.03;;;1.70;;
11006;SDS011;8186;57.652;11.968;2023-11-19T03:28:02;1.87;;;1.37;;
11006;SDS011;8186;57.652;11.968;2023-11-19T03:30:30;2.03;;;1.83;;
11006;SDS011;8186;57.652;11.968;2023-11-19T03:32:57;2.00;;;1.63;;
11006;SDS011;8186;57.652;11.968;2023-11-19T03:35:26;2.00;;;1.33;;
11006;SDS011;8186;57.652;11.968;2023-11-19T03:37:54;2.20;;;1.63;;
11006;SDS011;8186;57.652;11.968;2023-11-19T03:40:21;1.87;;;1.50;;
11006;SDS011;8186;57.652;11.968;2023-11-19T03:42:49;2.37;;;1.70;;
11006;SDS011;8186;57.652;11.968;2023-11-19T03:45:16;1.27;;;1.17;;
11006;SDS011;8186;57.652;11.968;2023-11-19T03:47:43;1.73;;;1.43;;
11006;SDS011;8186;57.652;11.968;2023-11-19T03:50:09;2.03;;;1.47;;
11006;SDS011;8186;57.652;11.968;2023-11-19T03:52:36;2.40;;;1.70;;
11006;SDS011;8186;57.652;11.968;2023-11-19T03:55:05;1.70;;;1.60;;
11006;SDS011;8186;57.652;11.968;2023-11-19T03:57:33;2.00;;;1.80;;
11006;SDS011;8186;57.652;11.968;2023-11-19T03:59:59;3.57;;;1.90;;
11006;SDS011;8186;57.652;11.968;2023-11-19T04:02:32;1.97;;;1.43;;
11006;SDS011;8186;57.652;11.968;2023-11-19T04:04:58;1.80;;;1.53;;
11006;SDS011;8186;57.652;11.968;2023-11-19T04:07:25;1.80;;;1.37;;
11006;SDS011;8186;57.652;11.968;2023-11-19T04:09:52;1.83;;;1.50;;
11006;SDS011;8186;57.652;11.968;2023-11-19T04:12:21;3.23;;;1.43;;
11006;SDS011;8186;57.652;11.968;2023-11-19T04:14:48;2.87;;;1.77;;
11006;SDS011;8186;57.652;11.968;2023-11-19T04:17:14;1.83;;;1.60;;
11006;SDS011;8186;57.652;11.968;2023-11-19T04:19:41;1.80;;;1.37;;
11006;SDS011;8186;57.652;11.968;2023-11-19T04:22:08;2.13;;;1.70;;
11006;SDS011;8186;57.652;11.968;2023-11-19T04:24:36;1.83;;;1.40;;
11006;SDS011;8186;57.652;11.968;2023-11-19T04:27:03;2.33;;;1.60;;
11006;SDS011;8186;57.652;11.968;2023-11-19T04:29:33;1.67;;;1.53;;
11006;SDS011;8186;57.652;11.968;2023-11-19T04:32:00;1.83;;;1.53;;
11006;SDS011;8186;57.652;11.968;2023-11-19T04:34:26;2.10;;;1.90;;
11006;SDS011;8186;57.652;11.968;2023-11-19T04:36:53;1.90;;;1.70;;
11006;SDS011;8186;57.652;11.968;2023-11-19T04:39:20;2.27;;;1.53;;
11006;SDS011;8186;57.652;11.968;2023-11-19T04:41:48;1.40;;;1.30;;
11006;SDS011;8186;57.652;11.968;2023-11-19T04:44:15;2.07;;;1.57;;
11006;SDS011;8186;57.652;11.968;2023-11-19T04:46:44;2.17;;;1.67;;
11006;SDS011;8186;57.652;11.968;2023-11-19T04:49:11;2.93;;;1.60;;
11006;SDS011;8186;57.652;11.968;2023-11-19T04:51:38;1.57;;;1.30;;
11006;SDS011;8186;57.652;11.968;2023-11-19T04:54:06;2.10;;;1.80;;
11006;SDS011;8186;57.652;11.968;2023-11-19T04:56:34;1.73;;;1.40;;
11006;SDS011;8186;57.652;11.968;2023-11-19T04:59:01;2.00;;;1.80;;
11006;SDS011;8186;57.652;11.968;2023-11-19T05:01:28;4.40;;;1.57;;
11006;SDS011;8186;57.652;11.968;2023-11-19T05:03:57;1.80;;;1.47;;
11006;SDS011;8186;57.652;11.968;2023-11-19T05:06:25;1.37;;;1.27;;
11006;SDS011;8186;57.652;11.968;2023-11-19T05:08:53;4.97;;;1.77;;
11006;SDS011;8186;57.652;11.968;2023-11-19T05:11:20;1.70;;;1.50;;
11006;SDS011;8186;57.652;11.968;2023-11-19T05:13:47;3.10;;;1.60;;
11006;SDS011;8186;57.652;11.968;2023-11-19T05:16:14;1.93;;;1.40;;
11006;SDS011;8186;57.652;11.968;2023-11-19T05:18:41;2.00;;;1.70;;
11006;SDS011;8186;57.652;11.968;2023-11-19T05:21:09;1.63;;;1.40;;
11006;SDS011;8186;57.652;11.968;2023-11-19T05:23:36;2.37;;;1.60;;
11006;SDS011;8186;57.652;11.968;2023-11-19T05:26:03;1.77;;;1.60;;
11006;SDS011;8186;57.652;11.968;2023-11-19T05:28:30;1.40;;;1.30;;
11006;SDS011;8186;57.652;11.968;2023-11-19T05:30:57;2.07;;;1.60;;
11006;SDS011;8186;57.652;11.968;2023-11-19T05:33:24;2.37;;;1.93;;
11006;SDS011;8186;57.652;11.968;2023-11-19T05:35:51;2.93;;;1.57;;
11006;SDS011;8186;57.652;11.968;2023-11-19T05:38:19;1.90;;;1.60;;
11006;SDS011;8186;57.652;11.968;2023-11-19T05:40:47;1.97;;;1.50;;
11006;SDS011;8186;57.652;11.968;2023-11-19T05:43:14;1.40;;;1.30;;
11006;SDS011;8186;57.652;11.968;2023-11-19T05:45:42;2.10;;;1.53;;
11006;SDS011;8186;57.652;11.968;2023-11-19T05:48:09;3.30;;;1.77;;
11006;SDS011;8186;57.652;11.968;2023-11-19T05:50:37;4.03;;;1.60;;
11006;SDS011;8186;57.652;11.968;2023-11-19T05:53:04;2.47;;;1.97;;
11006;SDS011;8186;57.652;11.968;2023-11-19T05:55:36;2.37;;;1.53;;
11006;SDS011;8186;57.652;11.968;2023-11-19T05:58:10;2.23;;;1.80;;
11006;SDS011;8186;57.652;11.968;2023-11-19T06:00:38;1.80;;;1.57;;
11006;SDS011;8186;57.652;11.968;2023-11-19T06:03:05;1.93;;;1.40;;
11006;SDS011;8186;57.652;11.968;2023-11-19T06:05:33;2.40;;;1.50;;
11006;SDS011;8186;57.652;11.968;2023-11-19T06:08:00;2.17;;;1.80;;
11006;SDS011;8186;57.652;11.968;2023-11-19T06:10:26;1.87;;;1.30;;
11006;SDS011;8186;57.652;11.968;2023-11-19T06:12:57;1.60;;;1.33;;
11006;SDS011;8186;57.652;11.968;2023-11-19T06:15:24;1.70;;;1.60;;
11006;SDS011;8186;57.652;11.968;2023-11-19T06:17:51;1.77;;;1.40;;
11006;SDS011;8186;57.652;11.968;2023-11-19T06:20:18;1.73;;;1.43;;
11006;SDS011;8186;57.652;11.968;2023-11-19T06:22:46;2.00;;;1.80;;
11006;SDS011;8186;57.652;11.968;2023-11-19T06:25:13;1.40;;;1.30;;
11006;SDS011;8186;57.652;11.968;2023-11-19T06:27:41;2.07;;;1.20;;
11006;SDS011;8186;57.652;11.968;2023-11-19T06:30:10;1.60;;;1.40;;
11006;SDS011;8186;57.652;11.968;2023-11-19T06:32:38;2.27;;;1.60;;
11006;SDS011;8186;57.652;11.968;2023-11-19T06:35:05;2.03;;;1.30;;
11006;SDS011;8186;57.652;11.968;2023-11-19T06:37:32;1.50;;;1.37;;
11006;SDS011;8186;57.652;11.968;2023-11-19T06:39:59;1.87;;;1.50;;
11006;SDS011;8186;57.652;11.968;2023-11-19T06:42:26;2.27;;;1.60;;
11006;SDS011;8186;57.652;11.968;2023-11-19T06:44:53;2.67;;;1.40;;
11006;SDS011;8186;57.652;11.968;2023-11-19T06:47:24;2.53;;;1.57;;
11006;SDS011;8186;57.652;11.968;2023-11-19T06:49:52;3.93;;;1.63;;
11006;SDS011;8186;57.652;11.968;2023-11-19T06:52:18;2.67;;;1.60;;
11006;SDS011;8186;57.652;11.968;2023-11-19T06:54:45;2.00;;;1.50;;
11006;SDS011;8186;57.652;11.968;2023-11-19T06:57:12;1.67;;;1.57;;
11006;SDS011;8186;57.652;11.968;2023-11-19T06:59:39;1.93;;;1.50;;
11006;SDS011;8186;57.652;11.968;2023-11-19T07:02:06;1.60;;;1.40;;
11006;SDS011;8186;57.652;11.968;2023-11-19T07:04:35;1.70;;;1.50;;
11006;SDS011;8186;57.652;11.968;2023-11-19T07:07:02;1.83;;;1.70;;
11006;SDS011;8186;57.652;11.968;2023-11-19T07:09:30;2.00;;;1.60;;
11006;SDS011;8186;57.652;11.968;2023-11-19T07:11:58;2.33;;;1.70;;
11006;SDS011;8186;57.652;11.968;2023-11-19T07:14:25;1.80;;;1.60;;
11006;SDS011;8186;57.652;11.968;2023-11-19T07:16:52;1.63;;;1.53;;
11006;SDS011;8186;57.652;11.968;2023-11-19T07:19:18;1.80;;;1.70;;
11006;SDS011;8186;57.652;11.968;2023-11-19T07:21:47;2.10;;;1.53;;
11006;SDS011;8186;57.652;11.968;2023-11-19T07:24:14;2.97;;;1.60;;
11006;SDS011;8186;57.652;11.968;2023-11-19T07:26:42;2.67;;;1.60;;
11006;SDS011;8186;57.652;11.968;2023-11-19T07:29:09;1.70;;;1.60;;
11006;SDS011;8186;57.652;11.968;2023-11-19T07:31:36;1.80;;;1.70;;
11006;SDS011;8186;57.652;11.968;2023-11-19T07:34:03;2.00;;;1.73;;
11006;SDS011;8186;57.652;11.968;2023-11-19T07:36:31;2.30;;;1.40;;
11006;SDS011;8186;57.652;11.968;2023-11-19T07:39:00;1.63;;;1.40;;
11006;SDS011;8186;57.652;11.968;2023-11-19T07:41:26;2.40;;;1.60;;
11006;SDS011;8186;57.652;11.968;2023-11-19T07:43:54;1.73;;;1.50;;
11006;SDS011;8186;57.652;11.968;2023-11-19T07:46:21;2.70;;;1.87;;
11006;SDS011;8186;57.652;11.968;2023-11-19T07:48:48;1.87;;;1.67;;
11006;SDS011;8186;57.652;11.968;2023-11-19T07:51:15;2.20;;;1.90;;
11006;SDS011;8186;57.652;11.968;2023-11-19T07:53:42;2.17;;;1.83;;
11006;SDS011;8186;57.652;11.968;2023-11-19T07:56:10;2.93;;;1.87;;
11006;SDS011;8186;57.652;11.968;2023-11-19T07:58:37;2.63;;;1.80;;
11006;SDS011;8186;57.652;11.968;2023-11-19T08:01:04;2.07;;;1.60;;
11006;SDS011;8186;57.652;11.968;2023-11-19T08:03:31;2.23;;;2.03;;
11006;SDS011;8186;57.652;11.968;2023-11-19T08:05:59;2.43;;;2.23;;
11006;SDS011;8186;57.652;11.968;2023-11-19T08:08:26;2.53;;;1.90;;
11006;SDS011;8186;57.652;11.968;2023-11-19T08:10:54;1.73;;;1.63;;
11006;SDS011;8186;57.652;11.968;2023-11-19T08:13:23;2.60;;;2.10;;
11006;SDS011;8186;57.652;11.968;2023-11-19T08:15:50;3.53;;;2.13;;
11006;SDS011;8186;57.652;11.968;2023-11-19T08:18:17;2.13;;;1.90;;
11006;SDS011;8186;57.652;11.968;2023-11-19T08:20:44;2.40;;;2.20;;
11006;SDS011;8186;57.652;11.968;2023-11-19T08:23:14;3.50;;;2.07;;
11006;SDS011;8186;57.652;11.968;2023-11-19T08:25:41;2.07;;;1.73;;
11006;SDS011;8186;57.652;11.968;2023-11-19T08:28:07;2.73;;;1.93;;
11006;SDS011;8186;57.652;11.968;2023-11-19T08:30:36;2.27;;;2.00;;
11006;SDS011;8186;57.652;11.968;2023-11-19T08:33:03;2.70;;;1.93;;
11006;SDS011;8186;57.652;11.968;2023-11-19T08:35:31;2.10;;;1.90;;
11006;SDS011;8186;57.652;11.968;2023-11-19T08:37:58;2.60;;;2.10;;
11006;SDS011;8186;57.652;11.968;2023-11-19T08:40:25;2.87;;;2.17;;
11006;SDS011;8186;57.652;11.968;2023-11-19T08:42:52;2.53;;;2.10;;
11006;SDS011;8186;57.652;11.968;2023-11-19T08:45:19;2.17;;;1.97;;
11006;SDS011;8186;57.652;11.968;2023-11-19T08:47:47;1.90;;;1.70;;
11006;SDS011;8186;57.652;11.968;2023-11-19T08:50:14;4.83;;;1.90;;
11006;SDS011;8186;57.652;11.968;2023-11-19T08:52:40;3.27;;;2.10;;
11006;SDS011;8186;57.652;11.968;2023-11-19T08:55:07;2.43;;;2.10;;
11006;SDS011;8186;57.652;11.968;2023-11-19T08:57:35;2.53;;;1.87;;
11006;SDS011;8186;57.652;11.968;2023-11-19T09:00:02;2.87;;;2.20;;
11006;SDS011;8186;57.652;11.968;2023-11-19T09:02:32;2.50;;;2.30;;
11006;SDS011;8186;57.652;11.968;2023-11-19T09:05:00;3.63;;;2.40;;
11006;SDS011;8186;57.652;11.968;2023-11-19T09:07:27;3.03;;;2.13;;
11006;SDS011;8186;57.652;11.968;2023-11-19T09:09:54;2.77;;;2.13;;
11006;SDS011;8186;57.652;11.968;2023-11-19T09:12:21;2.23;;;2.03;;
11006;SDS011;8186;57.652;11.968;2023-11-19T09:14:48;2.77;;;2.50;;
11006;SDS011;8186;57.652;11.968;2023-11-19T09:17:15;3.63;;;2.47;;
11006;SDS011;8186;57.652;11.968;2023-11-19T09:19:43;2.60;;;2.40;;
11006;SDS011;8186;57.652;11.968;2023-11-19T09:22:11;2.90;;;2.30;;
11006;SDS011;8186;57.652;11.968;2023-11-19T09:24:38;2.27;;;2.07;;
11006;SDS011;8186;57.652;11.968;2023-11-19T09:27:04;3.63;;;2.43;;
11006;SDS011;8186;57.652;11.968;2023-11-19T09:29:31;2.63;;;2.10;;
11006;SDS011;8186;57.652;11.968;2023-11-19T09:31:58;2.67;;;2.33;;
11006;SDS011;8186;57.652;11.968;2023-11-19T09:34:25;2.30;;;2.10;;
11006;SDS011;8186;57.652;11.968;2023-11-19T09:36:53;2.97;;;2.33;;
11006;SDS011;8186;57.652;11.968;2023-11-19T09:39:21;2.80;;;2.50;;
11006;SDS011;8186;57.652;11.968;2023-11-19T09:41:48;2.80;;;2.47;;
11006;SDS011;8186;57.652;11.968;2023-11-19T09:44:14;2.40;;;2.20;;
11006;SDS011;8186;57.652;11.968;2023-11-19T09:46:43;2.53;;;2.03;;
11006;SDS011;8186;57.652;11.968;2023-11-19T09:49:11;2.80;;;2.20;;
11006;SDS011;8186;57.652;11.968;2023-11-19T09:51:40;3.27;;;2.33;;
11006;SDS011;8186;57.652;11.968;2023-11-19T09:54:09;2.63;;;2.13;;
11006;SDS011;8186;57.652;11.968;2023-11-19T09:56:39;2.77;;;2.50;;
11006;SDS011;8186;57.652;11.968;2023-11-19T09:59:06;3.17;;;2.33;;
11006;SDS011;8186;57.652;11.968;2023-11-19T10:01:35;3.13;;;2.30;;
11006;SDS011;8186;57.652;11.968;2023-11-19T10:04:02;3.70;;;2.80;;
11006;SDS011;8186;57.652;11.968;2023-11-19T10:06:30;2.90;;;2.60;;
11006;SDS011;8186;57.652;11.968;2023-11-19T10:08:57;2.50;;;2.30;;
11006;SDS011;8186;57.652;11.968;2023-11-19T10:11:24;3.90;;;2.30;;
11006;SDS011;8186;57.652;11.968;2023-11-19T10:13:53;2.63;;;2.40;;
11006;SDS011;8186;57.652;11.968;2023-11-19T10:16:20;2.83;;;2.53;;
11006;SDS011;8186;57.652;11.968;2023-11-19T10:18:49;2.93;;;2.43;;
11006;SDS011;8186;57.652;11.968;2023-11-19T10:21:17;4.07;;;2.47;;
11006;SDS011;8186;57.652;11.968;2023-11-19T10:23:48;4.13;;;2.70;;
11006;SDS011;8186;57.652;11.968;2023-11-19T10:26:17;3.77;;;2.40;;
11006;SDS011;8186;57.652;11.968;2023-11-19T10:28:45;2.60;;;2.40;;
11006;SDS011;8186;57.652;11.968;2023-11-19T10:31:13;3.83;;;2.53;;
11006;SDS011;8186;57.652;11.968;2023-11-19T10:33:40;5.00;;;2.70;;
11006;SDS011;8186;57.652;11.968;2023-11-19T10:36:07;2.50;;;2.27;;
11006;SDS011;8186;57.652;11.968;2023-11-19T10:38:35;2.40;;;2.20;;
11006;SDS011;8186;57.652;11.968;2023-11-19T10:41:01;2.90;;;2.50;;
11006;SDS011;8186;57.652;11.968;2023-11-19T10:43:29;2.57;;;2.37;;
11006;SDS011;8186;57.652;11.968;2023-11-19T10:46:08;2.67;;;2.33;;
11006;SDS011;8186;57.652;11.968;2023-11-19T10:48:37;3.47;;;2.63;;
11006;SDS011;8186;57.652;11.968;2023-11-19T10:51:05;3.57;;;3.07;;
11006;SDS011;8186;57.652;11.968;2023-11-19T10:53:33;3.00;;;2.70;;
11006;SDS011;8186;57.652;11.968;2023-11-19T10:56:03;3.70;;;2.50;;
11006;SDS011;8186;57.652;11.968;2023-11-19T10:58:33;3.60;;;2.67;;
11006;SDS011;8186;57.652;11.968;2023-11-19T11:01:03;3.10;;;2.80;;
11006;SDS011;8186;57.652;11.968;2023-11-19T11:03:36;2.93;;;2.50;;
11006;SDS011;8186;57.652;11.968;2023-11-19T11:06:06;3.00;;;2.70;;
11006;SDS011;8186;57.652;11.968;2023-11-19T11:08:35;2.77;;;2.47;;
11006;SDS011;8186;57.652;11.968;2023-11-19T11:11:03;3.60;;;2.77;;
11006;SDS011;8186;57.652;11.968;2023-11-19T11:13:31;3.13;;;2.70;;
11006;SDS011;8186;57.652;11.968;2023-11-19T11:15:59;3.20;;;2.50;;
11006;SDS011;8186;57.652;11.968;2023-11-19T11:18:26;3.33;;;2.80;;
11006;SDS011;8186;57.652;11.968;2023-11-19T11:20:56;3.23;;;2.87;;
11006;SDS011;8186;57.652;11.968;2023-11-19T11:23:33;3.80;;;2.60;;
11006;SDS011;8186;57.652;11.968;2023-11-19T11:26:12;4.10;;;3.00;;
11006;SDS011;8186;57.652;11.968;2023-11-19T11:28:48;3.17;;;2.77;;
11006;SDS011;8186;57.652;11.968;2023-11-19T11:31:23;5.77;;;2.60;;
11006;SDS011;8186;57.652;11.968;2023-11-19T11:34:08;3.73;;;2.90;;
11006;SDS011;8186;57.652;11.968;2023-11-19T11:36:45;3.10;;;2.80;;
11006;SDS011;8186;57.652;11.968;2023-11-19T11:39:16;5.33;;;2.80;;
11006;SDS011;8186;57.652;11.968;2023-11-19T11:41:44;4.83;;;3.30;;
11006;SDS011;8186;57.652;11.968;2023-11-19T11:44:11;3.37;;;3.07;;
11006;SDS011;8186;57.652;11.968;2023-11-19T11:46:56;5.33;;;3.10;;
11006;SDS011;8186;57.652;11.968;2023-11-19T11:49:26;4.57;;;3.40;;
11006;SDS011;8186;57.652;11.968;2023-11-19T11:51:59;3.67;;;3.23;;
11006;SDS011;8186;57.652;11.968;2023-11-19T11:54:28;5.07;;;3.47;;
11006;SDS011;8186;57.652;11.968;2023-11-19T11:59:47;4.63;;;3.20;;
11006;SDS011;8186;57.652;11.968;2023-11-19T12:02:15;3.40;;;3.10;;
11006;SDS011;8186;57.652;11.968;2023-11-19T12:04:43;3.90;;;3.50;;
11006;SDS011;8186;57.652;11.968;2023-11-19T12:07:15;4.40;;;3.30;;
11006;SDS011;8186;57.652;11.968;2023-11-19T12:09:47;5.60;;;3.57;;
11006;SDS011;8186;57.652;11.968;2023-11-19T12:12:18;3.37;;;3.07;;
11006;SDS011;8186;57.652;11.968;2023-11-19T12:15:02;3.80;;;3.03;;
11006;SDS011;8186;57.652;11.968;2023-11-19T12:17:37;4.27;;;3.63;;
11006;SDS011;8186;57.652;11.968;2023-11-19T12:20:09;5.83;;;4.00;;
11006;SDS011;8186;57.652;11.968;2023-11-19T12:22:38;4.53;;;3.40;;
11006;SDS011;8186;57.652;11.968;2023-11-19T12:25:05;4.07;;;3.43;;
11006;SDS011;8186;57.652;11.968;2023-11-19T12:27:34;4.33;;;3.30;;
11006;SDS011;8186;57.652;11.968;2023-11-19T12:30:00;3.87;;;3.13;;
11006;SDS011;8186;57.652;11.968;2023-11-19T12:32:37;5.47;;;3.77;;
11006;SDS011;8186;57.652;11.968;2023-11-19T12:35:05;5.20;;;3.67;;
11006;SDS011;8186;57.652;11.968;2023-11-19T12:37:40;5.10;;;3.73;;
11006;SDS011;8186;57.652;11.968;2023-11-19T12:40:11;4.00;;;3.10;;
11006;SDS011;8186;57.652;11.968;2023-11-19T12:42:40;5.47;;;3.60;;
11006;SDS011;8186;57.652;11.968;2023-11-19T12:45:07;3.83;;;3.13;;
11006;SDS011;8186;57.652;11.968;2023-11-19T12:47:35;6.97;;;3.83;;
11006;SDS011;8186;57.652;11.968;2023-11-19T12:50:03;4.40;;;3.53;;
11006;SDS011;8186;57.652;11.968;2023-11-19T12:52:32;5.53;;;3.03;;
11006;SDS011;8186;57.652;11.968;2023-11-19T12:55:00;3.60;;;3.30;;
11006;SDS011;8186;57.652;11.968;2023-11-19T12:57:37;4.63;;;3.37;;
11006;SDS011;8186;57.652;11.968;2023-11-19T13:00:07;3.60;;;3.30;;
11006;SDS011;8186;57.652;11.968;2023-11-19T13:02:45;3.20;;;2.90;;
11006;SDS011;8186;57.652;11.968;2023-11-19T13:08:02;3.97;;;2.70;;
11006;SDS011;8186;57.652;11.968;2023-11-19T13:10:31;3.87;;;2.77;;
11006;SDS011;8186;57.652;11.968;2023-11-19T13:13:02;5.23;;;2.90;;
11006;SDS011;8186;57.652;11.968;2023-11-19T13:15:30;4.17;;;2.73;;
11006;SDS011;8186;57.652;11.968;2023-11-19T13:17:57;3.77;;;2.93;;
11006;SDS011;8186;57.652;11.968;2023-11-19T13:20:24;4.60;;;2.70;;
11006;SDS011;8186;57.652;11.968;2023-11-19T13:22:55;4.03;;;2.90;;
11006;SDS011;8186;57.652;11.968;2023-11-19T13:25:22;3.87;;;2.80;;
11006;SDS011;8186;57.652;11.968;2023-11-19T13:27:50;3.63;;;2.60;;
11006;SDS011;8186;57.652;11.968;2023-11-19T13:30:18;4.33;;;3.00;;
11006;SDS011;8186;57.652;11.968;2023-11-19T13:32:44;4.63;;;3.30;;
11006;SDS011;8186;57.652;11.968;2023-11-19T13:35:11;2.97;;;2.43;;
11006;SDS011;8186;57.652;11.968;2023-11-19T13:37:38;3.20;;;2.60;;
11006;SDS011;8186;57.652;11.968;2023-11-19T13:40:06;6.03;;;2.97;;
11006;SDS011;8186;57.652;11.968;2023-11-19T13:42:35;4.70;;;3.03;;
11006;SDS011;8186;57.652;11.968;2023-11-19T13:45:08;3.27;;;2.83;;
11006;SDS011;8186;57.652;11.968;2023-11-19T13:47:37;4.70;;;2.73;;
11006;SDS011;8186;57.652;11.968;2023-11-19T13:50:07;3.30;;;2.80;;
11006;SDS011;8186;57.652;11.968;2023-11-19T13:52:34;3.57;;;2.50;;
11006;SDS011;8186;57.652;11.968;2023-11-19T13:55:04;4.10;;;2.67;;
11006;SDS011;8186;57.652;11.968;2023-11-19T13:57:31;3.33;;;2.60;;
11006;SDS011;8186;57.652;11.968;2023-11-19T13:59:59;2.60;;;2.40;;
11006;SDS011;8186;57.652;11.968;2023-11-19T14:02:29;4.93;;;2.50;;
11006;SDS011;8186;57.652;11.968;2023-11-19T14:04:55;3.00;;;2.43;;
11006;SDS011;8186;57.652;11.968;2023-11-19T14:07:22;5.40;;;2.67;;
11006;SDS011;8186;57.652;11.968;2023-11-19T14:09:49;3.50;;;2.60;;
11006;SDS011;8186;57.652;11.968;2023-11-19T14:12:16;3.13;;;2.60;;
11006;SDS011;8186;57.652;11.968;2023-11-19T14:14:43;3.47;;;2.30;;
11006;SDS011;8186;57.652;11.968;2023-11-19T14:17:10;2.40;;;2.20;;
11006;SDS011;8186;57.652;11.968;2023-11-19T14:19:39;4.40;;;2.53;;
11006;SDS011;8186;57.652;11.968;2023-11-19T14:22:06;3.07;;;2.47;;
11006;SDS011;8186;57.652;11.968;2023-11-19T14:24:33;3.10;;;2.50;;
11006;SDS011;8186;57.652;11.968;2023-11-19T14:27:00;3.87;;;2.73;;
11006;SDS011;8186;57.652;11.968;2023-11-19T14:29:27;4.07;;;2.63;;
11006;SDS011;8186;57.652;11.968;2023-11-19T14:31:55;6.17;;;2.33;;
11006;SDS011;8186;57.652;11.968;2023-11-19T14:34:22;4.77;;;2.77;;
11006;SDS011;8186;57.652;11.968;2023-11-19T14:36:51;4.17;;;2.83;;
11006;SDS011;8186;57.652;11.968;2023-11-19T14:39:19;7.20;;;2.47;;
11006;SDS011;8186;57.652;11.968;2023-11-19T14:41:45;4.00;;;2.73;;
11006;SDS011;8186;57.652;11.968;2023-11-19T14:44:12;4.80;;;2.43;;
11006;SDS011;8186;57.652;11.968;2023-11-19T14:46:39;2.83;;;2.53;;
11006;SDS011;8186;57.652;11.968;2023-11-19T14:49:06;4.17;;;2.70;;
11006;SDS011;8186;57.652;11.968;2023-11-19T14:51:35;4.53;;;2.30;;
11006;SDS011;8186;57.652;11.968;2023-11-19T14:54:03;4.83;;;2.43;;
11006;SDS011;8186;57.652;11.968;2023-11-19T14:56:30;4.53;;;2.30;;
11006;SDS011;8186;57.652;11.968;2023-11-19T14:58:57;2.73;;;2.23;;